sensor_id;sensor_type;location;lat;lon;timestamp;P1;durP1;ratioP1;P2;durP2;ratioP2
51216;SDS011;37283;49.760;8.648;2023-05-23T05:02:44;17.95;;;16.17;;
51216;SDS011;37283;49.760;8.648;2023-05-23T05:05:10;18.08;;;16.17;;
51216;SDS011;37283;49.760;8.648;2023-05-23T05:07:37;19.60;;;17.25;;
51216;SDS011;37283;49.760;8.648;2023-05-23T05:10:05;18.73;;;16.77;;
51216;SDS011;37283;49.760;8.648;2023-05-23T05:12:33;18.35;;;16.45;;
51216;SDS011;37283;49.760;8.648;2023-05-23T05:15:01;18.63;;;16.55;;
51216;SDS011;37283;49.760;8.648;2023-05-23T05:17:28;20.38;;;18.38;;
51216;SDS011;37283;49.760;8.648;2023-05-23T05:20:04;20.92;;;18.73;;
51216;SDS011;37283;49.760;8.648;2023-05-23T05:22:38;20.33;;;18.38;;
51216;SDS011;37283;49.760;8.648;2023-05-23T05:25:11;20.73;;;18.52;;
51216;SDS011;37283;49.760;8.648;2023-05-23T05:27:38;19.63;;;17.70;;
51216;SDS011;37283;49.760;8.648;2023-05-23T05:30:08;21.98;;;19.77;;
51216;SDS011;37283;49.760;8.648;2023-05-23T05:32:55;20.92;;;18.70;;
51216;SDS011;37283;49.760;8.648;2023-05-23T05:35:23;20.42;;;18.27;;
51216;SDS011;37283;49.760;8.648;2023-05-23T05:37:49;20.30;;;18.40;;
51216;SDS011;37283;49.760;8.648;2023-05-23T06:06:11;14.52;;;13.13;;
51216;SDS011;37283;49.760;8.648;2023-05-23T07:06:43;7.20;;;6.60;;
51216;SDS011;37283;49.760;8.648;2023-05-23T07:09:10;7.70;;;6.90;;
51216;SDS011;37283;49.760;8.648;2023-05-23T07:11:39;6.35;;;5.85;;
51216;SDS011;37283;49.760;8.648;2023-05-23T07:14:07;6.40;;;5.80;;
51216;SDS011;37283;49.760;8.648;2023-05-23T07:16:44;7.35;;;5.95;;
51216;SDS011;37283;49.760;8.648;2023-05-23T07:19:11;7.55;;;6.30;;
51216;SDS011;37283;49.760;8.648;2023-05-23T07:21:43;6.60;;;6.00;;
51216;SDS011;37283;49.760;8.648;2023-05-23T07:24:12;7.03;;;5.97;;
51216;SDS011;37283;49.760;8.648;2023-05-23T07:26:38;6.47;;;5.70;;
51216;SDS011;37283;49.760;8.648;2023-05-23T07:29:05;6.70;;;6.07;;
51216;SDS011;37283;49.760;8.648;2023-05-23T07:31:32;6.47;;;5.55;;
51216;SDS011;37283;49.760;8.648;2023-05-23T07:33:59;6.50;;;5.90;;
51216;SDS011;37283;49.760;8.648;2023-05-23T07:36:33;6.45;;;5.85;;
51216;SDS011;37283;49.760;8.648;2023-05-23T07:39:02;6.43;;;5.83;;
51216;SDS011;37283;49.760;8.648;2023-05-23T07:41:29;6.32;;;5.72;;
51216;SDS011;37283;49.760;8.648;2023-05-23T07:43:56;7.00;;;5.80;;
51216;SDS011;37283;49.760;8.648;2023-05-23T07:46:22;6.15;;;5.55;;
51216;SDS011;37283;49.760;8.648;2023-05-23T07:48:49;6.45;;;5.85;;
51216;SDS011;37283;49.760;8.648;2023-05-23T07:51:16;5.90;;;5.40;;
51216;SDS011;37283;49.760;8.648;2023-05-23T07:53:47;6.15;;;5.55;;
51216;SDS011;37283;49.760;8.648;2023-05-23T07:56:13;6.07;;;5.47;;
51216;SDS011;37283;49.760;8.648;2023-05-23T07:58:41;6.75;;;5.43;;
51216;SDS011;37283;49.760;8.648;2023-05-23T08:01:08;6.35;;;5.82;;
51216;SDS011;37283;49.760;8.648;2023-05-23T08:03:57;6.20;;;5.60;;
51216;SDS011;37283;49.760;8.648;2023-05-23T08:06:31;5.85;;;5.35;;
51216;SDS011;37283;49.760;8.648;2023-05-23T08:09:00;6.72;;;6.05;;
51216;SDS011;37283;49.760;8.648;2023-05-23T08:11:29;6.05;;;5.45;;
51216;SDS011;37283;49.760;8.648;2023-05-23T08:13:56;6.18;;;5.57;;
51216;SDS011;37283;49.760;8.648;2023-05-23T08:16:37;6.68;;;5.65;;
51216;SDS011;37283;49.760;8.648;2023-05-23T08:19:12;6.90;;;5.30;;
51216;SDS011;37283;49.760;8.648;2023-05-23T08:21:38;5.38;;;4.90;;
51216;SDS011;37283;49.760;8.648;2023-05-23T08:24:05;5.65;;;5.10;;
51216;SDS011;37283;49.760;8.648;2023-05-23T08:26:33;6.43;;;5.78;;
51216;SDS011;37283;49.760;8.648;2023-05-23T08:29:04;6.00;;;5.50;;
51216;SDS011;37283;49.760;8.648;2023-05-23T08:31:31;6.70;;;6.00;;
51216;SDS011;37283;49.760;8.648;2023-05-23T08:34:02;7.55;;;6.68;;
51216;SDS011;37283;49.760;8.648;2023-05-23T08:36:29;8.75;;;6.80;;
51216;SDS011;37283;49.760;8.648;2023-05-23T08:38:59;6.72;;;6.13;;
51216;SDS011;37283;49.760;8.648;2023-05-23T08:44:05;6.70;;;6.10;;
51216;SDS011;37283;49.760;8.648;2023-05-23T08:46:38;7.40;;;6.70;;
51216;SDS011;37283;49.760;8.648;2023-05-23T08:49:12;6.15;;;5.55;;
51216;SDS011;37283;49.760;8.648;2023-05-23T08:51:41;6.03;;;5.43;;
51216;SDS011;37283;49.760;8.648;2023-05-23T08:54:14;5.53;;;5.03;;
51216;SDS011;37283;49.760;8.648;2023-05-23T08:56:40;5.82;;;5.20;;
51216;SDS011;37283;49.760;8.648;2023-05-23T08:59:08;6.03;;;5.53;;
51216;SDS011;37283;49.760;8.648;2023-05-23T09:01:37;5.47;;;4.97;;
51216;SDS011;37283;49.760;8.648;2023-05-23T09:04:08;5.43;;;4.93;;
51216;SDS011;37283;49.760;8.648;2023-05-23T09:06:50;5.53;;;5.03;;
51216;SDS011;37283;49.760;8.648;2023-05-23T09:09:17;4.75;;;4.32;;
51216;SDS011;37283;49.760;8.648;2023-05-23T09:11:44;5.13;;;4.63;;
51216;SDS011;37283;49.760;8.648;2023-05-23T09:14:12;4.57;;;4.13;;
51216;SDS011;37283;49.760;8.648;2023-05-23T09:16:40;6.15;;;4.38;;
51216;SDS011;37283;49.760;8.648;2023-05-23T09:19:14;5.03;;;4.10;;
51216;SDS011;37283;49.760;8.648;2023-05-23T09:21:48;4.70;;;4.10;;
51216;SDS011;37283;49.760;8.648;2023-05-23T09:24:32;4.20;;;3.80;;
51216;SDS011;37283;49.760;8.648;2023-05-23T09:26:59;4.43;;;3.97;;
51216;SDS011;37283;49.760;8.648;2023-05-23T09:29:26;5.65;;;4.07;;
51216;SDS011;37283;49.760;8.648;2023-05-23T09:31:58;4.15;;;3.78;;
51216;SDS011;37283;49.760;8.648;2023-05-23T09:34:28;6.00;;;3.80;;
51216;SDS011;37283;49.760;8.648;2023-05-23T09:36:54;4.22;;;3.83;;
51216;SDS011;37283;49.760;8.648;2023-05-23T09:39:22;4.40;;;4.00;;
51216;SDS011;37283;49.760;8.648;2023-05-23T09:41:48;5.00;;;4.30;;
51216;SDS011;37283;49.760;8.648;2023-05-23T09:44:16;4.68;;;4.18;;
51216;SDS011;37283;49.760;8.648;2023-05-23T09:46:49;4.30;;;3.90;;
51216;SDS011;37283;49.760;8.648;2023-05-23T09:49:19;3.92;;;3.53;;
51216;SDS011;37283;49.760;8.648;2023-05-23T09:51:59;3.60;;;3.30;;
51216;SDS011;37283;49.760;8.648;2023-05-23T09:54:26;5.20;;;3.72;;
51216;SDS011;37283;49.760;8.648;2023-05-23T09:56:53;4.05;;;3.58;;
51216;SDS011;37283;49.760;8.648;2023-05-23T09:59:22;4.80;;;3.63;;
51216;SDS011;37283;49.760;8.648;2023-05-23T10:01:51;3.63;;;3.30;;
51216;SDS011;37283;49.760;8.648;2023-05-23T10:04:21;3.53;;;3.20;;
51216;SDS011;37283;49.760;8.648;2023-05-23T10:06:50;5.78;;;3.40;;
51216;SDS011;37283;49.760;8.648;2023-05-23T10:09:19;3.63;;;3.33;;
51216;SDS011;37283;49.760;8.648;2023-05-23T10:12:10;3.67;;;3.38;;
51216;SDS011;37283;49.760;8.648;2023-05-23T10:15:02;3.50;;;3.00;;
51216;SDS011;37283;49.760;8.648;2023-05-23T10:20:24;4.07;;;2.78;;
51216;SDS011;37283;49.760;8.648;2023-05-23T10:22:51;4.45;;;2.78;;
51216;SDS011;37283;49.760;8.648;2023-05-23T10:25:18;5.10;;;2.80;;
51216;SDS011;37283;49.760;8.648;2023-05-23T10:27:44;4.25;;;2.90;;
51216;SDS011;37283;49.760;8.648;2023-05-23T10:30:16;4.38;;;3.08;;
51216;SDS011;37283;49.760;8.648;2023-05-23T10:32:43;4.63;;;2.95;;
51216;SDS011;37283;49.760;8.648;2023-05-23T10:43:47;4.05;;;3.05;;
51216;SDS011;37283;49.760;8.648;2023-05-23T10:46:19;8.50;;;2.90;;
51216;SDS011;37283;49.760;8.648;2023-05-23T10:48:47;3.63;;;3.33;;
51216;SDS011;37283;49.760;8.648;2023-05-23T10:51:20;3.88;;;3.17;;
51216;SDS011;37283;49.760;8.648;2023-05-23T10:53:51;4.82;;;3.25;;
51216;SDS011;37283;49.760;8.648;2023-05-23T10:56:20;4.13;;;3.10;;
51216;SDS011;37283;49.760;8.648;2023-05-23T11:01:21;4.15;;;3.28;;
51216;SDS011;37283;49.760;8.648;2023-05-23T11:03:50;8.80;;;3.00;;
51216;SDS011;37283;49.760;8.648;2023-05-23T11:09:10;4.95;;;2.92;;
51216;SDS011;37283;49.760;8.648;2023-05-23T11:14:14;3.97;;;3.00;;
51216;SDS011;37283;49.760;8.648;2023-05-23T11:16:41;5.25;;;3.15;;
51216;SDS011;37283;49.760;8.648;2023-05-23T11:21:45;5.20;;;3.25;;
51216;SDS011;37283;49.760;8.648;2023-05-23T11:24:13;6.82;;;3.42;;
51216;SDS011;37283;49.760;8.648;2023-05-23T11:26:40;6.25;;;3.40;;
51216;SDS011;37283;49.760;8.648;2023-05-23T11:31:45;5.18;;;3.53;;
51216;SDS011;37283;49.760;8.648;2023-05-23T11:34:12;6.90;;;3.38;;
51216;SDS011;37283;49.760;8.648;2023-05-23T11:36:39;4.57;;;3.65;;
51216;SDS011;37283;49.760;8.648;2023-05-23T11:39:05;4.07;;;3.55;;
51216;SDS011;37283;49.760;8.648;2023-05-23T11:41:33;5.80;;;4.15;;
51216;SDS011;37283;49.760;8.648;2023-05-23T11:44:00;4.97;;;4.15;;
51216;SDS011;37283;49.760;8.648;2023-05-23T11:46:27;9.75;;;4.97;;
51216;SDS011;37283;49.760;8.648;2023-05-23T11:48:54;5.60;;;5.10;;
51216;SDS011;37283;49.760;8.648;2023-05-23T11:51:21;9.50;;;5.65;;
51216;SDS011;37283;49.760;8.648;2023-05-23T11:53:47;6.32;;;5.57;;
51216;SDS011;37283;49.760;8.648;2023-05-23T11:56:14;9.82;;;5.75;;
51216;SDS011;37283;49.760;8.648;2023-05-23T11:58:42;6.78;;;5.93;;
51216;SDS011;37283;49.760;8.648;2023-05-23T12:01:10;9.10;;;5.68;;
51216;SDS011;37283;49.760;8.648;2023-05-23T12:03:44;8.13;;;6.32;;
51216;SDS011;37283;49.760;8.648;2023-05-23T12:06:15;6.53;;;5.18;;
51216;SDS011;37283;49.760;8.648;2023-05-23T12:08:41;7.93;;;5.68;;
51216;SDS011;37283;49.760;8.648;2023-05-23T12:11:08;6.85;;;5.88;;
51216;SDS011;37283;49.760;8.648;2023-05-23T12:13:35;6.97;;;5.18;;
51216;SDS011;37283;49.760;8.648;2023-05-23T12:16:01;7.75;;;4.93;;
51216;SDS011;37283;49.760;8.648;2023-05-23T12:18:31;5.90;;;4.88;;
51216;SDS011;37283;49.760;8.648;2023-05-23T12:21:01;6.63;;;5.80;;
51216;SDS011;37283;49.760;8.648;2023-05-23T12:23:29;8.85;;;5.38;;
51216;SDS011;37283;49.760;8.648;2023-05-23T12:25:58;6.07;;;5.47;;
51216;SDS011;37283;49.760;8.648;2023-05-23T12:28:34;6.65;;;4.93;;
51216;SDS011;37283;49.760;8.648;2023-05-23T12:31:18;6.53;;;5.30;;
51216;SDS011;37283;49.760;8.648;2023-05-23T12:33:47;6.35;;;5.75;;
51216;SDS011;37283;49.760;8.648;2023-05-23T12:36:20;6.75;;;5.20;;
51216;SDS011;37283;49.760;8.648;2023-05-23T12:38:47;7.55;;;5.22;;
51216;SDS011;37283;49.760;8.648;2023-05-23T12:41:15;6.63;;;4.85;;
51216;SDS011;37283;49.760;8.648;2023-05-23T12:43:51;5.47;;;4.60;;
51216;SDS011;37283;49.760;8.648;2023-05-23T12:46:27;11.82;;;5.38;;
51216;SDS011;37283;49.760;8.648;2023-05-23T12:48:54;6.22;;;4.53;;
51216;SDS011;37283;49.760;8.648;2023-05-23T12:51:20;6.50;;;4.70;;
51216;SDS011;37283;49.760;8.648;2023-05-23T12:53:47;4.07;;;3.67;;
51216;SDS011;37283;49.760;8.648;2023-05-23T12:56:14;4.07;;;3.50;;
51216;SDS011;37283;49.760;8.648;2023-05-23T12:58:40;4.38;;;3.78;;
51216;SDS011;37283;49.760;8.648;2023-05-23T13:01:07;7.20;;;4.43;;
51216;SDS011;37283;49.760;8.648;2023-05-23T13:03:34;10.52;;;5.30;;
51216;SDS011;37283;49.760;8.648;2023-05-23T13:06:01;5.78;;;5.00;;
51216;SDS011;37283;49.760;8.648;2023-05-23T13:08:27;7.65;;;5.30;;
51216;SDS011;37283;49.760;8.648;2023-05-23T13:10:54;6.47;;;5.35;;
51216;SDS011;37283;49.760;8.648;2023-05-23T13:13:21;6.82;;;5.05;;
51216;SDS011;37283;49.760;8.648;2023-05-23T13:15:48;9.52;;;5.20;;
51216;SDS011;37283;49.760;8.648;2023-05-23T13:18:16;5.22;;;4.72;;
51216;SDS011;37283;49.760;8.648;2023-05-23T13:20:43;7.60;;;4.78;;
51216;SDS011;37283;49.760;8.648;2023-05-23T13:23:10;5.63;;;4.57;;
51216;SDS011;37283;49.760;8.648;2023-05-23T13:25:37;4.25;;;3.80;;
51216;SDS011;37283;49.760;8.648;2023-05-23T13:28:04;5.18;;;4.00;;
51216;SDS011;37283;49.760;8.648;2023-05-23T13:30:31;5.32;;;3.40;;
51216;SDS011;37283;49.760;8.648;2023-05-23T13:32:58;6.68;;;3.50;;
51216;SDS011;37283;49.760;8.648;2023-05-23T13:35:24;6.00;;;3.13;;
51216;SDS011;37283;49.760;8.648;2023-05-23T13:37:51;4.15;;;2.80;;
51216;SDS011;37283;49.760;8.648;2023-05-23T13:40:18;5.75;;;3.28;;
51216;SDS011;37283;49.760;8.648;2023-05-23T13:42:46;4.97;;;2.75;;
51216;SDS011;37283;49.760;8.648;2023-05-23T13:45:16;5.28;;;2.80;;
51216;SDS011;37283;49.760;8.648;2023-05-23T13:47:43;3.75;;;2.70;;
51216;SDS011;37283;49.760;8.648;2023-05-23T13:50:10;3.00;;;2.22;;
51216;SDS011;37283;49.760;8.648;2023-05-23T13:52:37;3.10;;;2.10;;
51216;SDS011;37283;49.760;8.648;2023-05-23T13:55:07;3.47;;;2.60;;
51216;SDS011;37283;49.760;8.648;2023-05-23T13:57:34;2.42;;;2.10;;
51216;SDS011;37283;49.760;8.648;2023-05-23T14:00:01;3.33;;;2.50;;
51216;SDS011;37283;49.760;8.648;2023-05-23T14:02:29;3.03;;;2.53;;
51216;SDS011;37283;49.760;8.648;2023-05-23T14:04:57;3.40;;;2.50;;
51216;SDS011;37283;49.760;8.648;2023-05-23T14:07:24;4.75;;;2.30;;
51216;SDS011;37283;49.760;8.648;2023-05-23T14:09:50;3.25;;;2.10;;
51216;SDS011;37283;49.760;8.648;2023-05-23T14:12:17;3.10;;;2.35;;
51216;SDS011;37283;49.760;8.648;2023-05-23T14:14:43;3.67;;;1.88;;
51216;SDS011;37283;49.760;8.648;2023-05-23T14:17:13;4.30;;;2.03;;
51216;SDS011;37283;49.760;8.648;2023-05-23T14:19:41;3.08;;;2.20;;
51216;SDS011;37283;49.760;8.648;2023-05-23T14:22:08;4.03;;;2.60;;
51216;SDS011;37283;49.760;8.648;2023-05-23T14:24:35;4.40;;;2.33;;
51216;SDS011;37283;49.760;8.648;2023-05-23T14:27:01;6.00;;;2.80;;
51216;SDS011;37283;49.760;8.648;2023-05-23T14:29:28;3.28;;;2.50;;
51216;SDS011;37283;49.760;8.648;2023-05-23T14:31:55;3.22;;;2.55;;
51216;SDS011;37283;49.760;8.648;2023-05-23T14:34:22;6.65;;;2.50;;
51216;SDS011;37283;49.760;8.648;2023-05-23T14:36:48;2.75;;;2.40;;
51216;SDS011;37283;49.760;8.648;2023-05-23T14:39:17;5.03;;;2.63;;
51216;SDS011;37283;49.760;8.648;2023-05-23T14:41:43;4.28;;;2.47;;
51216;SDS011;37283;49.760;8.648;2023-05-23T14:44:11;4.38;;;3.03;;
51216;SDS011;37283;49.760;8.648;2023-05-23T14:46:38;5.03;;;3.38;;
51216;SDS011;37283;49.760;8.648;2023-05-23T14:49:07;4.93;;;3.42;;
51216;SDS011;37283;49.760;8.648;2023-05-23T14:51:33;5.63;;;3.63;;
51216;SDS011;37283;49.760;8.648;2023-05-23T14:54:15;5.55;;;3.75;;
51216;SDS011;37283;49.760;8.648;2023-05-23T14:56:42;7.38;;;3.50;;
51216;SDS011;37283;49.760;8.648;2023-05-23T14:59:08;10.02;;;3.95;;
51216;SDS011;37283;49.760;8.648;2023-05-23T15:01:35;7.30;;;4.05;;
51216;SDS011;37283;49.760;8.648;2023-05-23T15:04:05;6.63;;;3.83;;
51216;SDS011;37283;49.760;8.648;2023-05-23T15:06:35;7.60;;;4.13;;
51216;SDS011;37283;49.760;8.648;2023-05-23T15:09:02;7.28;;;4.13;;
51216;SDS011;37283;49.760;8.648;2023-05-23T15:11:29;8.55;;;4.40;;
51216;SDS011;37283;49.760;8.648;2023-05-23T15:13:57;7.88;;;4.50;;
51216;SDS011;37283;49.760;8.648;2023-05-23T15:16:24;7.05;;;5.22;;
51216;SDS011;37283;49.760;8.648;2023-05-23T15:18:51;8.05;;;4.93;;
51216;SDS011;37283;49.760;8.648;2023-05-23T15:21:17;7.97;;;4.82;;
51216;SDS011;37283;49.760;8.648;2023-05-23T15:23:44;5.78;;;4.70;;
51216;SDS011;37283;49.760;8.648;2023-05-23T15:26:11;7.75;;;4.93;;
51216;SDS011;37283;49.760;8.648;2023-05-23T15:28:37;7.95;;;5.50;;
51216;SDS011;37283;49.760;8.648;2023-05-23T15:31:04;11.18;;;7.22;;
51216;SDS011;37283;49.760;8.648;2023-05-23T15:33:31;15.27;;;7.70;;
51216;SDS011;37283;49.760;8.648;2023-05-23T15:35:57;12.00;;;6.85;;
51216;SDS011;37283;49.760;8.648;2023-05-23T15:38:24;12.55;;;7.60;;
51216;SDS011;37283;49.760;8.648;2023-05-23T15:40:51;9.32;;;5.85;;
51216;SDS011;37283;49.760;8.648;2023-05-23T15:43:19;7.07;;;5.90;;
51216;SDS011;37283;49.760;8.648;2023-05-23T15:45:48;12.10;;;6.18;;
51216;SDS011;37283;49.760;8.648;2023-05-23T15:48:15;9.32;;;5.72;;
51216;SDS011;37283;49.760;8.648;2023-05-23T15:50:41;9.75;;;5.72;;
51216;SDS011;37283;49.760;8.648;2023-05-23T15:53:09;6.47;;;5.60;;
51216;SDS011;37283;49.760;8.648;2023-05-23T15:55:36;9.35;;;5.85;;
51216;SDS011;37283;49.760;8.648;2023-05-23T15:58:06;7.93;;;6.05;;
51216;SDS011;37283;49.760;8.648;2023-05-23T16:00:33;9.23;;;6.97;;
51216;SDS011;37283;49.760;8.648;2023-05-23T16:02:59;10.35;;;6.28;;
51216;SDS011;37283;49.760;8.648;2023-05-23T16:05:26;10.35;;;6.43;;
51216;SDS011;37283;49.760;8.648;2023-05-23T16:07:53;10.82;;;6.65;;
51216;SDS011;37283;49.760;8.648;2023-05-23T16:10:19;8.30;;;5.95;;
51216;SDS011;37283;49.760;8.648;2023-05-23T16:12:46;9.27;;;6.50;;
51216;SDS011;37283;49.760;8.648;2023-05-23T16:15:12;9.38;;;6.00;;
51216;SDS011;37283;49.760;8.648;2023-05-23T16:17:39;9.32;;;6.13;;
51216;SDS011;37283;49.760;8.648;2023-05-23T16:20:06;11.25;;;6.82;;
51216;SDS011;37283;49.760;8.648;2023-05-23T16:22:32;8.02;;;5.72;;
51216;SDS011;37283;49.760;8.648;2023-05-23T16:24:59;8.52;;;5.75;;
51216;SDS011;37283;49.760;8.648;2023-05-23T16:27:31;9.68;;;6.70;;
51216;SDS011;37283;49.760;8.648;2023-05-23T16:29:58;8.90;;;6.63;;
51216;SDS011;37283;49.760;8.648;2023-05-23T16:32:26;6.97;;;5.28;;
51216;SDS011;37283;49.760;8.648;2023-05-23T16:34:53;6.97;;;5.78;;
51216;SDS011;37283;49.760;8.648;2023-05-23T16:37:20;6.72;;;5.28;;
51216;SDS011;37283;49.760;8.648;2023-05-23T16:39:46;7.90;;;5.30;;
51216;SDS011;37283;49.760;8.648;2023-05-23T16:42:13;7.35;;;5.22;;
51216;SDS011;37283;49.760;8.648;2023-05-23T16:44:39;6.25;;;4.80;;
51216;SDS011;37283;49.760;8.648;2023-05-23T16:47:06;7.68;;;5.15;;
51216;SDS011;37283;49.760;8.648;2023-05-23T16:49:33;6.53;;;5.05;;
51216;SDS011;37283;49.760;8.648;2023-05-23T16:51:59;8.57;;;4.80;;
51216;SDS011;37283;49.760;8.648;2023-05-23T16:54:26;6.03;;;4.32;;
51216;SDS011;37283;49.760;8.648;2023-05-23T16:56:52;9.27;;;4.60;;
51216;SDS011;37283;49.760;8.648;2023-05-23T16:59:19;7.22;;;4.35;;
51216;SDS011;37283;49.760;8.648;2023-05-23T17:01:45;6.65;;;4.82;;
51216;SDS011;37283;49.760;8.648;2023-05-23T17:04:12;5.30;;;4.28;;
51216;SDS011;37283;49.760;8.648;2023-05-23T17:06:39;6.50;;;4.57;;
51216;SDS011;37283;49.760;8.648;2023-05-23T17:09:05;6.50;;;4.60;;
51216;SDS011;37283;49.760;8.648;2023-05-23T17:11:33;5.40;;;4.28;;
51216;SDS011;37283;49.760;8.648;2023-05-23T17:14:00;6.38;;;4.28;;
51216;SDS011;37283;49.760;8.648;2023-05-23T17:16:26;7.38;;;4.18;;
51216;SDS011;37283;49.760;8.648;2023-05-23T17:18:55;5.65;;;4.10;;
51216;SDS011;37283;49.760;8.648;2023-05-23T17:21:22;6.47;;;4.13;;
51216;SDS011;37283;49.760;8.648;2023-05-23T17:23:48;5.18;;;4.03;;
51216;SDS011;37283;49.760;8.648;2023-05-23T17:26:15;5.65;;;4.05;;
51216;SDS011;37283;49.760;8.648;2023-05-23T17:28:46;5.93;;;4.00;;
51216;SDS011;37283;49.760;8.648;2023-05-23T17:31:13;5.55;;;3.80;;
51216;SDS011;37283;49.760;8.648;2023-05-23T17:33:39;5.65;;;3.85;;
51216;SDS011;37283;49.760;8.648;2023-05-23T17:36:06;5.57;;;3.90;;
51216;SDS011;37283;49.760;8.648;2023-05-23T17:38:33;6.03;;;3.58;;
51216;SDS011;37283;49.760;8.648;2023-05-23T17:40:59;6.10;;;3.40;;
51216;SDS011;37283;49.760;8.648;2023-05-23T17:43:26;3.80;;;3.00;;
51216;SDS011;37283;49.760;8.648;2023-05-23T17:45:52;5.55;;;3.33;;
51216;SDS011;37283;49.760;8.648;2023-05-23T17:51:03;4.72;;;3.20;;
51216;SDS011;37283;49.760;8.648;2023-05-23T17:53:30;5.25;;;3.00;;
51216;SDS011;37283;49.760;8.648;2023-05-23T17:55:57;4.85;;;3.28;;
51216;SDS011;37283;49.760;8.648;2023-05-23T17:58:24;4.30;;;3.10;;
51216;SDS011;37283;49.760;8.648;2023-05-23T18:00:51;6.30;;;3.38;;
51216;SDS011;37283;49.760;8.648;2023-05-23T18:03:17;5.75;;;3.42;;
51216;SDS011;37283;49.760;8.648;2023-05-23T18:05:44;5.47;;;3.17;;
51216;SDS011;37283;49.760;8.648;2023-05-23T18:08:10;4.57;;;2.80;;
51216;SDS011;37283;49.760;8.648;2023-05-23T18:10:37;4.40;;;3.17;;
51216;SDS011;37283;49.760;8.648;2023-05-23T18:13:03;4.07;;;2.80;;
51216;SDS011;37283;49.760;8.648;2023-05-23T18:15:30;3.58;;;2.53;;
51216;SDS011;37283;49.760;8.648;2023-05-23T18:17:56;5.65;;;3.00;;
51216;SDS011;37283;49.760;8.648;2023-05-23T18:20:23;5.68;;;3.00;;
51216;SDS011;37283;49.760;8.648;2023-05-23T18:22:50;4.93;;;2.72;;
51216;SDS011;37283;49.760;8.648;2023-05-23T18:25:18;4.18;;;2.83;;
51216;SDS011;37283;49.760;8.648;2023-05-23T18:27:44;4.78;;;3.05;;
51216;SDS011;37283;49.760;8.648;2023-05-23T18:30:11;5.28;;;2.90;;
51216;SDS011;37283;49.760;8.648;2023-05-23T18:32:37;4.35;;;2.97;;
51216;SDS011;37283;49.760;8.648;2023-05-23T18:35:04;5.22;;;2.40;;
51216;SDS011;37283;49.760;8.648;2023-05-23T18:37:31;5.32;;;2.63;;
51216;SDS011;37283;49.760;8.648;2023-05-23T18:39:58;4.88;;;2.70;;
51216;SDS011;37283;49.760;8.648;2023-05-23T18:42:28;3.22;;;2.40;;
51216;SDS011;37283;49.760;8.648;2023-05-23T18:44:57;4.85;;;2.67;;
51216;SDS011;37283;49.760;8.648;2023-05-23T18:47:23;5.78;;;2.67;;
51216;SDS011;37283;49.760;8.648;2023-05-23T18:49:50;5.50;;;2.67;;
51216;SDS011;37283;49.760;8.648;2023-05-23T18:52:16;5.70;;;2.72;;
51216;SDS011;37283;49.760;8.648;2023-05-23T18:54:43;6.00;;;2.35;;
51216;SDS011;37283;49.760;8.648;2023-05-23T18:57:09;5.18;;;2.80;;
51216;SDS011;37283;49.760;8.648;2023-05-23T18:59:36;5.35;;;3.20;;
51216;SDS011;37283;49.760;8.648;2023-05-23T19:02:03;6.50;;;3.20;;
51216;SDS011;37283;49.760;8.648;2023-05-23T19:04:29;4.40;;;2.90;;
51216;SDS011;37283;49.760;8.648;2023-05-23T19:06:56;8.20;;;3.13;;
51216;SDS011;37283;49.760;8.648;2023-05-23T19:09:24;5.50;;;3.33;;
51216;SDS011;37283;49.760;8.648;2023-05-23T19:11:51;6.45;;;2.97;;
51216;SDS011;37283;49.760;8.648;2023-05-23T19:14:17;7.70;;;3.17;;
51216;SDS011;37283;49.760;8.648;2023-05-23T19:16:44;5.22;;;2.85;;
51216;SDS011;37283;49.760;8.648;2023-05-23T19:19:11;5.63;;;2.90;;
51216;SDS011;37283;49.760;8.648;2023-05-23T19:21:38;5.28;;;3.20;;
51216;SDS011;37283;49.760;8.648;2023-05-23T19:24:04;5.97;;;2.88;;
51216;SDS011;37283;49.760;8.648;2023-05-23T19:26:33;6.90;;;3.13;;
51216;SDS011;37283;49.760;8.648;2023-05-23T19:28:59;7.53;;;3.22;;
51216;SDS011;37283;49.760;8.648;2023-05-23T19:31:26;7.70;;;3.10;;
51216;SDS011;37283;49.760;8.648;2023-05-23T19:33:53;6.05;;;2.60;;
51216;SDS011;37283;49.760;8.648;2023-05-23T19:36:20;5.53;;;2.88;;
51216;SDS011;37283;49.760;8.648;2023-05-23T19:38:47;8.60;;;3.33;;
51216;SDS011;37283;49.760;8.648;2023-05-23T19:41:13;6.60;;;3.00;;
51216;SDS011;37283;49.760;8.648;2023-05-23T19:43:40;7.60;;;3.03;;
51216;SDS011;37283;49.760;8.648;2023-05-23T19:46:06;8.13;;;3.25;;
51216;SDS011;37283;49.760;8.648;2023-05-23T19:48:33;6.60;;;3.25;;
51216;SDS011;37283;49.760;8.648;2023-05-23T19:51:01;7.15;;;3.25;;
51216;SDS011;37283;49.760;8.648;2023-05-23T19:53:27;6.72;;;3.25;;
51216;SDS011;37283;49.760;8.648;2023-05-23T19:55:54;7.53;;;3.53;;
51216;SDS011;37283;49.760;8.648;2023-05-23T19:58:21;7.47;;;2.97;;
51216;SDS011;37283;49.760;8.648;2023-05-23T20:00:48;6.10;;;3.15;;
51216;SDS011;37283;49.760;8.648;2023-05-23T20:03:14;7.78;;;2.60;;
51216;SDS011;37283;49.760;8.648;2023-05-23T20:05:41;7.50;;;3.30;;
51216;SDS011;37283;49.760;8.648;2023-05-23T20:08:08;7.65;;;2.95;;
51216;SDS011;37283;49.760;8.648;2023-05-23T20:10:35;11.20;;;2.88;;
51216;SDS011;37283;49.760;8.648;2023-05-23T20:13:01;7.72;;;3.35;;
51216;SDS011;37283;49.760;8.648;2023-05-23T20:15:28;6.32;;;3.15;;
51216;SDS011;37283;49.760;8.648;2023-05-23T20:18:05;6.10;;;2.95;;
51216;SDS011;37283;49.760;8.648;2023-05-23T20:20:32;6.22;;;2.90;;
51216;SDS011;37283;49.760;8.648;2023-05-23T20:22:59;8.77;;;3.58;;
51216;SDS011;37283;49.760;8.648;2023-05-23T20:25:25;9.48;;;3.35;;
51216;SDS011;37283;49.760;8.648;2023-05-23T20:27:53;7.10;;;3.25;;
51216;SDS011;37283;49.760;8.648;2023-05-23T20:30:24;9.70;;;3.13;;
51216;SDS011;37283;49.760;8.648;2023-05-23T20:32:51;8.20;;;3.53;;
51216;SDS011;37283;49.760;8.648;2023-05-23T20:35:22;7.78;;;3.13;;
51216;SDS011;37283;49.760;8.648;2023-05-23T20:37:49;7.38;;;3.22;;
51216;SDS011;37283;49.760;8.648;2023-05-23T20:40:22;10.70;;;3.33;;
51216;SDS011;37283;49.760;8.648;2023-05-23T20:42:48;9.48;;;2.97;;
51216;SDS011;37283;49.760;8.648;2023-05-23T20:45:15;8.27;;;2.97;;
51216;SDS011;37283;49.760;8.648;2023-05-23T20:47:41;6.47;;;2.83;;
51216;SDS011;37283;49.760;8.648;2023-05-23T20:50:09;6.88;;;3.05;;
51216;SDS011;37283;49.760;8.648;2023-05-23T20:52:36;9.02;;;3.30;;
51216;SDS011;37283;49.760;8.648;2023-05-23T20:55:06;7.82;;;2.92;;
51216;SDS011;37283;49.760;8.648;2023-05-23T20:57:33;6.47;;;3.00;;
51216;SDS011;37283;49.760;8.648;2023-05-23T21:00:05;10.80;;;2.85;;
51216;SDS011;37283;49.760;8.648;2023-05-23T21:02:38;5.85;;;2.75;;
51216;SDS011;37283;49.760;8.648;2023-05-23T21:05:06;5.78;;;3.20;;
51216;SDS011;37283;49.760;8.648;2023-05-23T21:07:33;9.07;;;3.15;;
51216;SDS011;37283;49.760;8.648;2023-05-23T21:10:00;8.30;;;3.10;;
51216;SDS011;37283;49.760;8.648;2023-05-23T21:12:27;9.82;;;3.28;;
51216;SDS011;37283;49.760;8.648;2023-05-23T21:14:54;11.27;;;3.95;;
51216;SDS011;37283;49.760;8.648;2023-05-23T21:17:23;8.57;;;3.20;;
51216;SDS011;37283;49.760;8.648;2023-05-23T21:19:50;8.00;;;3.28;;
51216;SDS011;37283;49.760;8.648;2023-05-23T21:22:17;8.02;;;3.08;;
51216;SDS011;37283;49.760;8.648;2023-05-23T21:24:43;8.68;;;3.28;;
51216;SDS011;37283;49.760;8.648;2023-05-23T21:27:10;8.27;;;3.20;;
51216;SDS011;37283;49.760;8.648;2023-05-23T21:29:37;9.60;;;3.58;;
51216;SDS011;37283;49.760;8.648;2023-05-23T21:32:04;12.15;;;3.28;;
51216;SDS011;37283;49.760;8.648;2023-05-23T21:34:30;7.00;;;3.13;;
51216;SDS011;37283;49.760;8.648;2023-05-23T21:36:57;8.00;;;3.33;;
51216;SDS011;37283;49.760;8.648;2023-05-23T21:39:23;9.00;;;2.97;;
51216;SDS011;37283;49.760;8.648;2023-05-23T21:41:52;10.70;;;3.35;;
51216;SDS011;37283;49.760;8.648;2023-05-23T21:44:18;7.82;;;3.15;;
51216;SDS011;37283;49.760;8.648;2023-05-23T21:46:45;8.13;;;3.70;;